sensor_id;sensor_type;location;lat;lon;timestamp;temperature;humidity
43651;DHT22;29247;50.944;5.382;2023-02-26T00:02:22;2.50;73.10
43651;DHT22;29247;50.944;5.382;2023-02-26T00:04:48;2.50;73.10
43651;DHT22;29247;50.944;5.382;2023-02-26T00:07:14;2.50;73.20
43651;DHT22;29247;50.944;5.382;2023-02-26T00:09:41;2.50;73.40
43651;DHT22;29247;50.944;5.382;2023-02-26T00:12:10;2.50;73.50
43651;DHT22;29247;50.944;5.382;2023-02-26T00:14:37;2.50;73.60
43651;DHT22;29247;50.944;5.382;2023-02-26T00:19:31;2.50;73.70
43651;DHT22;29247;50.944;5.382;2023-02-26T00:21:58;2.50;73.80
43651;DHT22;29247;50.944;5.382;2023-02-26T00:24:23;2.50;73.80
43651;DHT22;29247;50.944;5.382;2023-02-26T00:26:49;2.50;73.90
43651;DHT22;29247;50.944;5.382;2023-02-26T00:29:15;2.50;74.00
43651;DHT22;29247;50.944;5.382;2023-02-26T00:31:41;2.50;74.00
43651;DHT22;29247;50.944;5.382;2023-02-26T00:34:11;2.50;74.00
43651;DHT22;29247;50.944;5.382;2023-02-26T00:39:36;2.50;74.10
43651;DHT22;29247;50.944;5.382;2023-02-26T00:42:06;2.50;74.10
43651;DHT22;29247;50.944;5.382;2023-02-26T00:44:33;2.40;74.00
43651;DHT22;29247;50.944;5.382;2023-02-26T00:47:07;2.40;74.80
43651;DHT22;29247;50.944;5.382;2023-02-26T00:49:46;2.40;74.00
43651;DHT22;29247;50.944;5.382;2023-02-26T00:55:15;2.40;74.10
43651;DHT22;29247;50.944;5.382;2023-02-26T00:57:41;2.30;74.00
43651;DHT22;29247;50.944;5.382;2023-02-26T01:00:08;2.30;74.20
43651;DHT22;29247;50.944;5.382;2023-02-26T01:02:36;2.30;74.40
43651;DHT22;29247;50.944;5.382;2023-02-26T01:05:02;2.30;74.60
43651;DHT22;29247;50.944;5.382;2023-02-26T01:07:29;2.30;74.60
43651;DHT22;29247;50.944;5.382;2023-02-26T01:09:57;2.30;74.70
43651;DHT22;29247;50.944;5.382;2023-02-26T01:12:24;2.30;74.60
43651;DHT22;29247;50.944;5.382;2023-02-26T01:14:49;2.30;74.60
43651;DHT22;29247;50.944;5.382;2023-02-26T01:17:24;2.30;74.60
43651;DHT22;29247;50.944;5.382;2023-02-26T01:20:01;2.20;74.50
43651;DHT22;29247;50.944;5.382;2023-02-26T01:25:15;2.20;75.00
43651;DHT22;29247;50.944;5.382;2023-02-26T01:27:45;2.20;75.20
43651;DHT22;29247;50.944;5.382;2023-02-26T01:30:11;2.20;75.40
43651;DHT22;29247;50.944;5.382;2023-02-26T01:32:58;2.20;76.20
43651;DHT22;29247;50.944;5.382;2023-02-26T01:35:44;2.10;75.60
43651;DHT22;29247;50.944;5.382;2023-02-26T01:41:26;2.10;75.60
43651;DHT22;29247;50.944;5.382;2023-02-26T01:46:49;2.10;75.80
43651;DHT22;29247;50.944;5.382;2023-02-26T01:49:19;2.10;76.70
43651;DHT22;29247;50.944;5.382;2023-02-26T01:51:55;2.10;76.00
43651;DHT22;29247;50.944;5.382;2023-02-26T01:54:32;2.10;76.20
43651;DHT22;29247;50.944;5.382;2023-02-26T01:59:34;2.10;76.20
43651;DHT22;29247;50.944;5.382;2023-02-26T02:02:04;2.10;76.30
43651;DHT22;29247;50.944;5.382;2023-02-26T02:04:31;2.10;76.40
43651;DHT22;29247;50.944;5.382;2023-02-26T02:07:03;2.20;76.60
43651;DHT22;29247;50.944;5.382;2023-02-26T02:09:36;2.20;76.80
43651;DHT22;29247;50.944;5.382;2023-02-26T02:17:49;2.20;76.90
43651;DHT22;29247;50.944;5.382;2023-02-26T02:23:16;2.20;77.00
43651;DHT22;29247;50.944;5.382;2023-02-26T02:34:20;2.20;77.20
43651;DHT22;29247;50.944;5.382;2023-02-26T02:37:36;2.10;77.40
43651;DHT22;29247;50.944;5.382;2023-02-26T02:39:48;2.20;78.40
43651;DHT22;29247;50.944;5.382;2023-02-26T02:42:25;2.20;78.00
43651;DHT22;29247;50.944;5.382;2023-02-26T02:45:05;2.20;78.20
43651;DHT22;29247;50.944;5.382;2023-02-26T02:47:34;2.20;78.20
43651;DHT22;29247;50.944;5.382;2023-02-26T02:50:06;2.20;78.40
43651;DHT22;29247;50.944;5.382;2023-02-26T02:55:27;2.20;78.90
43651;DHT22;29247;50.944;5.382;2023-02-26T02:58:03;2.20;79.00
43651;DHT22;29247;50.944;5.382;2023-02-26T03:00:37;2.20;78.90
43651;DHT22;29247;50.944;5.382;2023-02-26T03:03:09;2.20;78.70
43651;DHT22;29247;50.944;5.382;2023-02-26T03:05:38;2.20;78.50
43651;DHT22;29247;50.944;5.382;2023-02-26T03:08:10;2.20;78.50
43651;DHT22;29247;50.944;5.382;2023-02-26T03:10:40;2.30;78.50
43651;DHT22;29247;50.944;5.382;2023-02-26T03:13:17;2.30;78.40
43651;DHT22;29247;50.944;5.382;2023-02-26T03:21:06;2.30;78.20
43651;DHT22;29247;50.944;5.382;2023-02-26T03:23:53;2.40;78.30
43651;DHT22;29247;50.944;5.382;2023-02-26T03:26:30;2.30;78.20
43651;DHT22;29247;50.944;5.382;2023-02-26T03:29:06;2.30;78.10
43651;DHT22;29247;50.944;5.382;2023-02-26T03:31:57;2.30;78.30
43651;DHT22;29247;50.944;5.382;2023-02-26T03:34:33;2.30;78.30
43651;DHT22;29247;50.944;5.382;2023-02-26T03:37:12;2.30;78.20
43651;DHT22;29247;50.944;5.382;2023-02-26T03:39:47;2.30;78.10
43651;DHT22;29247;50.944;5.382;2023-02-26T03:47:18;2.30;78.20
43651;DHT22;29247;50.944;5.382;2023-02-26T03:52:22;2.30;78.10
43651;DHT22;29247;50.944;5.382;2023-02-26T03:54:57;2.20;78.20
43651;DHT22;29247;50.944;5.382;2023-02-26T03:57:24;2.20;78.20
43651;DHT22;29247;50.944;5.382;2023-02-26T03:59:49;2.20;78.30
43651;DHT22;29247;50.944;5.382;2023-02-26T04:02:20;2.20;78.40
43651;DHT22;29247;50.944;5.382;2023-02-26T04:04:55;2.20;78.60
43651;DHT22;29247;50.944;5.382;2023-02-26T04:07:22;2.20;79.50
43651;DHT22;29247;50.944;5.382;2023-02-26T04:09:49;2.20;78.70
43651;DHT22;29247;50.944;5.382;2023-02-26T04:12:23;2.10;78.70
43651;DHT22;29247;50.944;5.382;2023-02-26T04:14:49;2.10;78.70
43651;DHT22;29247;50.944;5.382;2023-02-26T04:17:17;2.10;78.90
43651;DHT22;29247;50.944;5.382;2023-02-26T04:19:47;2.10;78.90
43651;DHT22;29247;50.944;5.382;2023-02-26T04:22:13;2.10;79.10
43651;DHT22;29247;50.944;5.382;2023-02-26T04:24:39;2.10;79.10
43651;DHT22;29247;50.944;5.382;2023-02-26T04:27:04;2.10;79.10
43651;DHT22;29247;50.944;5.382;2023-02-26T04:29:30;2.10;79.20
43651;DHT22;29247;50.944;5.382;2023-02-26T04:31:56;2.00;79.20
43651;DHT22;29247;50.944;5.382;2023-02-26T04:34:24;2.00;79.20
43651;DHT22;29247;50.944;5.382;2023-02-26T04:36:50;2.00;79.10
43651;DHT22;29247;50.944;5.382;2023-02-26T04:39:16;2.00;79.10
43651;DHT22;29247;50.944;5.382;2023-02-26T04:41:41;2.00;79.00
43651;DHT22;29247;50.944;5.382;2023-02-26T04:44:12;2.10;79.10
43651;DHT22;29247;50.944;5.382;2023-02-26T04:46:37;2.00;79.10
43651;DHT22;29247;50.944;5.382;2023-02-26T04:49:03;2.00;79.10
43651;DHT22;29247;50.944;5.382;2023-02-26T04:51:31;2.00;79.20
43651;DHT22;29247;50.944;5.382;2023-02-26T04:53:57;1.90;79.20
43651;DHT22;29247;50.944;5.382;2023-02-26T04:56:22;1.90;79.20
43651;DHT22;29247;50.944;5.382;2023-02-26T04:58:48;1.90;79.20
43651;DHT22;29247;50.944;5.382;2023-02-26T05:01:16;1.90;79.00
43651;DHT22;29247;50.944;5.382;2023-02-26T05:03:42;1.80;78.90
43651;DHT22;29247;50.944;5.382;2023-02-26T05:06:08;1.90;79.00
43651;DHT22;29247;50.944;5.382;2023-02-26T05:08:34;1.80;78.80
43651;DHT22;29247;50.944;5.382;2023-02-26T05:10:59;1.80;78.70
43651;DHT22;29247;50.944;5.382;2023-02-26T05:13:25;1.80;78.70
43651;DHT22;29247;50.944;5.382;2023-02-26T05:15:54;1.80;78.70
43651;DHT22;29247;50.944;5.382;2023-02-26T05:18:22;1.70;78.70
43651;DHT22;29247;50.944;5.382;2023-02-26T05:20:56;1.70;78.90
43651;DHT22;29247;50.944;5.382;2023-02-26T05:23:22;1.70;78.90
43651;DHT22;29247;50.944;5.382;2023-02-26T05:25:47;1.60;78.80
43651;DHT22;29247;50.944;5.382;2023-02-26T05:28:13;1.70;78.70
43651;DHT22;29247;50.944;5.382;2023-02-26T05:30:41;1.70;78.60
43651;DHT22;29247;50.944;5.382;2023-02-26T05:33:10;1.70;78.60
43651;DHT22;29247;50.944;5.382;2023-02-26T05:35:36;1.70;78.60
43651;DHT22;29247;50.944;5.382;2023-02-26T05:38:02;1.60;78.60
43651;DHT22;29247;50.944;5.382;2023-02-26T05:40:27;1.60;78.60
43651;DHT22;29247;50.944;5.382;2023-02-26T05:42:53;1.60;78.60
43651;DHT22;29247;50.944;5.382;2023-02-26T05:45:19;1.60;78.70
43651;DHT22;29247;50.944;5.382;2023-02-26T05:47:44;1.60;78.60
43651;DHT22;29247;50.944;5.382;2023-02-26T05:50:10;1.60;78.60
43651;DHT22;29247;50.944;5.382;2023-02-26T05:52:36;1.60;78.60
43651;DHT22;29247;50.944;5.382;2023-02-26T05:55:02;1.50;78.50
43651;DHT22;29247;50.944;5.382;2023-02-26T05:57:28;1.60;78.50
43651;DHT22;29247;50.944;5.382;2023-02-26T05:59:56;1.50;78.40
43651;DHT22;29247;50.944;5.382;2023-02-26T06:02:24;1.50;78.30
43651;DHT22;29247;50.944;5.382;2023-02-26T06:04:50;1.50;78.30
43651;DHT22;29247;50.944;5.382;2023-02-26T06:07:16;1.50;78.20
43651;DHT22;29247;50.944;5.382;2023-02-26T06:09:42;1.50;78.20
43651;DHT22;29247;50.944;5.382;2023-02-26T06:12:10;1.50;78.10
43651;DHT22;29247;50.944;5.382;2023-02-26T06:14:36;1.40;78.10
43651;DHT22;29247;50.944;5.382;2023-02-26T06:17:04;1.40;78.10
43651;DHT22;29247;50.944;5.382;2023-02-26T06:19:31;1.40;78.10
43651;DHT22;29247;50.944;5.382;2023-02-26T06:21:57;1.40;78.80
43651;DHT22;29247;50.944;5.382;2023-02-26T06:24:23;1.40;77.90
43651;DHT22;29247;50.944;5.382;2023-02-26T06:26:48;1.40;77.80
43651;DHT22;29247;50.944;5.382;2023-02-26T06:29:14;1.40;77.80
43651;DHT22;29247;50.944;5.382;2023-02-26T06:31:43;1.40;77.70
43651;DHT22;29247;50.944;5.382;2023-02-26T06:34:08;1.40;77.70
43651;DHT22;29247;50.944;5.382;2023-02-26T06:36:34;1.40;77.80
43651;DHT22;29247;50.944;5.382;2023-02-26T06:39:00;1.40;77.80
43651;DHT22;29247;50.944;5.382;2023-02-26T06:41:25;1.40;77.90
43651;DHT22;29247;50.944;5.382;2023-02-26T06:43:51;1.40;77.90
43651;DHT22;29247;50.944;5.382;2023-02-26T06:46:17;1.40;77.80
43651;DHT22;29247;50.944;5.382;2023-02-26T06:48:42;1.40;77.80
43651;DHT22;29247;50.944;5.382;2023-02-26T06:51:08;1.40;77.80
43651;DHT22;29247;50.944;5.382;2023-02-26T06:53:36;1.40;77.80
43651;DHT22;29247;50.944;5.382;2023-02-26T06:56:01;1.40;77.80
43651;DHT22;29247;50.944;5.382;2023-02-26T06:58:27;1.40;77.80
43651;DHT22;29247;50.944;5.382;2023-02-26T07:00:56;1.40;77.70
43651;DHT22;29247;50.944;5.382;2023-02-26T07:03:21;1.40;77.70
43651;DHT22;29247;50.944;5.382;2023-02-26T07:05:47;1.40;77.70
43651;DHT22;29247;50.944;5.382;2023-02-26T07:08:13;1.30;77.60
43651;DHT22;29247;50.944;5.382;2023-02-26T07:10:40;1.30;77.60
43651;DHT22;29247;50.944;5.382;2023-02-26T07:13:07;1.30;77.70
43651;DHT22;29247;50.944;5.382;2023-02-26T07:15:35;1.30;77.80
43651;DHT22;29247;50.944;5.382;2023-02-26T07:18:01;1.30;77.80
43651;DHT22;29247;50.944;5.382;2023-02-26T07:20:28;1.30;77.80
43651;DHT22;29247;50.944;5.382;2023-02-26T07:22:57;1.30;77.80
43651;DHT22;29247;50.944;5.382;2023-02-26T07:25:22;1.30;77.80
43651;DHT22;29247;50.944;5.382;2023-02-26T07:27:51;1.30;77.80
43651;DHT22;29247;50.944;5.382;2023-02-26T07:30:19;1.40;77.80
43651;DHT22;29247;50.944;5.382;2023-02-26T07:32:46;1.40;77.80
43651;DHT22;29247;50.944;5.382;2023-02-26T07:35:17;1.40;78.60
43651;DHT22;29247;50.944;5.382;2023-02-26T07:37:46;1.50;79.00
43651;DHT22;29247;50.944;5.382;2023-02-26T07:40:14;1.50;78.60
43651;DHT22;29247;50.944;5.382;2023-02-26T07:42:42;1.60;78.00
43651;DHT22;29247;50.944;5.382;2023-02-26T07:45:09;1.60;77.60
43651;DHT22;29247;50.944;5.382;2023-02-26T07:47:35;1.60;77.30
43651;DHT22;29247;50.944;5.382;2023-02-26T07:50:02;1.60;77.80
43651;DHT22;29247;50.944;5.382;2023-02-26T07:52:30;1.60;78.00
43651;DHT22;29247;50.944;5.382;2023-02-26T07:54:55;1.60;77.20
43651;DHT22;29247;50.944;5.382;2023-02-26T07:57:21;1.60;76.70
43651;DHT22;29247;50.944;5.382;2023-02-26T07:59:47;1.60;76.60
43651;DHT22;29247;50.944;5.382;2023-02-26T08:02:13;1.70;76.60
43651;DHT22;29247;50.944;5.382;2023-02-26T08:04:39;1.70;76.70
43651;DHT22;29247;50.944;5.382;2023-02-26T08:07:04;1.80;76.70
43651;DHT22;29247;50.944;5.382;2023-02-26T08:09:30;1.80;76.30
43651;DHT22;29247;50.944;5.382;2023-02-26T08:11:56;1.90;76.00
43651;DHT22;29247;50.944;5.382;2023-02-26T08:14:22;1.90;75.80
43651;DHT22;29247;50.944;5.382;2023-02-26T08:16:50;1.90;75.50
43651;DHT22;29247;50.944;5.382;2023-02-26T08:19:19;2.00;75.40
43651;DHT22;29247;50.944;5.382;2023-02-26T08:21:45;2.00;75.00
43651;DHT22;29247;50.944;5.382;2023-02-26T08:24:11;2.00;74.80
43651;DHT22;29247;50.944;5.382;2023-02-26T08:26:37;2.10;74.70
43651;DHT22;29247;50.944;5.382;2023-02-26T08:29:03;2.10;74.70
43651;DHT22;29247;50.944;5.382;2023-02-26T08:31:33;2.20;74.60
43651;DHT22;29247;50.944;5.382;2023-02-26T08:33:59;2.30;74.30
43651;DHT22;29247;50.944;5.382;2023-02-26T08:36:27;2.30;74.10
43651;DHT22;29247;50.944;5.382;2023-02-26T08:38:53;2.40;74.00
43651;DHT22;29247;50.944;5.382;2023-02-26T08:41:23;2.50;73.70
43651;DHT22;29247;50.944;5.382;2023-02-26T08:43:54;2.50;73.30
43651;DHT22;29247;50.944;5.382;2023-02-26T08:46:21;2.60;73.10
43651;DHT22;29247;50.944;5.382;2023-02-26T08:48:47;2.70;72.90
43651;DHT22;29247;50.944;5.382;2023-02-26T08:51:12;2.70;72.70
43651;DHT22;29247;50.944;5.382;2023-02-26T08:53:38;2.70;72.20
43651;DHT22;29247;50.944;5.382;2023-02-26T08:56:05;2.80;72.10
43651;DHT22;29247;50.944;5.382;2023-02-26T08:58:30;2.80;72.00
43651;DHT22;29247;50.944;5.382;2023-02-26T09:00:56;3.00;71.90
43651;DHT22;29247;50.944;5.382;2023-02-26T09:03:25;3.00;71.80
43651;DHT22;29247;50.944;5.382;2023-02-26T09:05:52;3.00;71.60
43651;DHT22;29247;50.944;5.382;2023-02-26T09:08:21;3.10;71.40
43651;DHT22;29247;50.944;5.382;2023-02-26T09:10:48;3.10;71.20
43651;DHT22;29247;50.944;5.382;2023-02-26T09:13:14;3.20;70.90
43651;DHT22;29247;50.944;5.382;2023-02-26T09:15:43;3.20;70.70
43651;DHT22;29247;50.944;5.382;2023-02-26T09:18:10;3.20;70.60
43651;DHT22;29247;50.944;5.382;2023-02-26T09:20:43;3.20;70.40
43651;DHT22;29247;50.944;5.382;2023-02-26T09:23:10;3.30;70.40
43651;DHT22;29247;50.944;5.382;2023-02-26T09:25:36;3.40;70.20
43651;DHT22;29247;50.944;5.382;2023-02-26T09:28:02;3.50;69.80
43651;DHT22;29247;50.944;5.382;2023-02-26T09:30:28;3.50;69.30
43651;DHT22;29247;50.944;5.382;2023-02-26T09:32:56;3.50;69.00
43651;DHT22;29247;50.944;5.382;2023-02-26T09:35:21;3.60;69.10
43651;DHT22;29247;50.944;5.382;2023-02-26T09:37:47;3.70;69.00
43651;DHT22;29247;50.944;5.382;2023-02-26T09:45:42;4.10;68.20
43651;DHT22;29247;50.944;5.382;2023-02-26T09:48:10;4.20;68.00
43651;DHT22;29247;50.944;5.382;2023-02-26T09:50:41;4.20;67.60
43651;DHT22;29247;50.944;5.382;2023-02-26T09:53:39;4.30;66.90
43651;DHT22;29247;50.944;5.382;2023-02-26T09:56:23;4.40;67.40
43651;DHT22;29247;50.944;5.382;2023-02-26T09:58:50;4.50;67.00
43651;DHT22;29247;50.944;5.382;2023-02-26T10:10:40;5.00;65.80
43651;DHT22;29247;50.944;5.382;2023-02-26T10:13:04;5.00;65.00
43651;DHT22;29247;50.944;5.382;2023-02-26T10:15:39;5.00;64.80
43651;DHT22;29247;50.944;5.382;2023-02-26T10:18:16;5.00;65.20
43651;DHT22;29247;50.944;5.382;2023-02-26T10:25:51;5.10;63.60
43651;DHT22;29247;50.944;5.382;2023-02-26T10:28:34;5.10;62.60
43651;DHT22;29247;50.944;5.382;2023-02-26T10:33:57;5.30;62.30
43651;DHT22;29247;50.944;5.382;2023-02-26T10:36:29;5.40;60.00
43651;DHT22;29247;50.944;5.382;2023-02-26T10:39:15;5.50;58.90
43651;DHT22;29247;50.944;5.382;2023-02-26T10:41:43;5.60;58.90
43651;DHT22;29247;50.944;5.382;2023-02-26T10:50:15;5.60;56.40
43651;DHT22;29247;50.944;5.382;2023-02-26T10:52:48;5.50;55.50
43651;DHT22;29247;50.944;5.382;2023-02-26T10:55:19;5.50;56.20
43651;DHT22;29247;50.944;5.382;2023-02-26T10:58:14;5.60;56.60
43651;DHT22;29247;50.944;5.382;2023-02-26T11:00:46;5.70;55.90
43651;DHT22;29247;50.944;5.382;2023-02-26T11:05:59;5.70;55.70
43651;DHT22;29247;50.944;5.382;2023-02-26T11:08:42;5.90;56.00
43651;DHT22;29247;50.944;5.382;2023-02-26T11:11:09;5.90;55.20
43651;DHT22;29247;50.944;5.382;2023-02-26T11:13:37;5.90;56.00
43651;DHT22;29247;50.944;5.382;2023-02-26T11:16:14;6.00;55.90
43651;DHT22;29247;50.944;5.382;2023-02-26T11:18:47;6.10;55.20
43651;DHT22;29247;50.944;5.382;2023-02-26T11:21:27;6.10;53.80
43651;DHT22;29247;50.944;5.382;2023-02-26T11:24:01;6.00;53.40
43651;DHT22;29247;50.944;5.382;2023-02-26T11:26:33;6.10;54.10
43651;DHT22;29247;50.944;5.382;2023-02-26T11:28:59;6.10;54.60
43651;DHT22;29247;50.944;5.382;2023-02-26T11:31:28;6.20;54.60
43651;DHT22;29247;50.944;5.382;2023-02-26T11:34:06;6.30;54.60
43651;DHT22;29247;50.944;5.382;2023-02-26T11:36:33;6.40;54.00
43651;DHT22;29247;50.944;5.382;2023-02-26T11:39:09;6.50;53.50
43651;DHT22;29247;50.944;5.382;2023-02-26T11:41:39;6.60;53.40
43651;DHT22;29247;50.944;5.382;2023-02-26T11:44:18;6.70;54.00
43651;DHT22;29247;50.944;5.382;2023-02-26T11:46:56;6.80;53.10
43651;DHT22;29247;50.944;5.382;2023-02-26T11:49:26;6.90;53.40
43651;DHT22;29247;50.944;5.382;2023-02-26T11:52:27;6.90;53.20
43651;DHT22;29247;50.944;5.382;2023-02-26T11:55:01;7.00;52.80
43651;DHT22;29247;50.944;5.382;2023-02-26T11:57:30;7.10;52.90
43651;DHT22;29247;50.944;5.382;2023-02-26T11:59:58;7.20;52.10
43651;DHT22;29247;50.944;5.382;2023-02-26T12:02:32;7.30;52.70
43651;DHT22;29247;50.944;5.382;2023-02-26T12:05:05;7.30;51.20
43651;DHT22;29247;50.944;5.382;2023-02-26T12:07:32;7.30;51.50
43651;DHT22;29247;50.944;5.382;2023-02-26T12:09:57;7.30;51.80
43651;DHT22;29247;50.944;5.382;2023-02-26T12:12:51;7.50;51.70
43651;DHT22;29247;50.944;5.382;2023-02-26T12:17:58;7.20;50.60
43651;DHT22;29247;50.944;5.382;2023-02-26T12:20:30;7.20;51.10
43651;DHT22;29247;50.944;5.382;2023-02-26T12:23:10;7.20;51.50
43651;DHT22;29247;50.944;5.382;2023-02-26T12:45:23;6.80;50.60
43651;DHT22;29247;50.944;5.382;2023-02-26T12:47:58;6.80;50.90
43651;DHT22;29247;50.944;5.382;2023-02-26T12:50:59;6.70;51.00
43651;DHT22;29247;50.944;5.382;2023-02-26T13:04:42;6.10;50.00
43651;DHT22;29247;50.944;5.382;2023-02-26T13:09:54;6.00;50.00
43651;DHT22;29247;50.944;5.382;2023-02-26T13:12:29;5.90;49.70
43651;DHT22;29247;50.944;5.382;2023-02-26T13:21:18;5.90;50.00
43651;DHT22;29247;50.944;5.382;2023-02-26T13:26:22;5.90;49.80
43651;DHT22;29247;50.944;5.382;2023-02-26T13:31:39;5.90;50.00
43651;DHT22;29247;50.944;5.382;2023-02-26T13:34:14;6.00;50.30
43651;DHT22;29247;50.944;5.382;2023-02-26T13:36:41;6.10;50.40
43651;DHT22;29247;50.944;5.382;2023-02-26T13:40:11;6.10;49.90
43651;DHT22;29247;50.944;5.382;2023-02-26T13:51:11;5.90;49.10
43651;DHT22;29247;50.944;5.382;2023-02-26T14:01:59;5.90;48.70
43651;DHT22;29247;50.944;5.382;2023-02-26T14:04:29;5.90;48.70
43651;DHT22;29247;50.944;5.382;2023-02-26T14:07:09;5.90;48.90
43651;DHT22;29247;50.944;5.382;2023-02-26T14:12:45;6.10;48.70
43651;DHT22;29247;50.944;5.382;2023-02-26T14:15:28;6.10;48.80
43651;DHT22;29247;50.944;5.382;2023-02-26T14:18:04;6.10;48.80
43651;DHT22;29247;50.944;5.382;2023-02-26T14:20:33;6.10;49.00
43651;DHT22;29247;50.944;5.382;2023-02-26T14:25:40;6.10;49.00
43651;DHT22;29247;50.944;5.382;2023-02-26T14:33:44;6.00;49.00
43651;DHT22;29247;50.944;5.382;2023-02-26T14:36:17;5.90;48.50
43651;DHT22;29247;50.944;5.382;2023-02-26T14:38:50;6.00;48.80
43651;DHT22;29247;50.944;5.382;2023-02-26T14:41:35;6.00;49.10
43651;DHT22;29247;50.944;5.382;2023-02-26T14:44:13;6.00;48.90
43651;DHT22;29247;50.944;5.382;2023-02-26T14:46:43;6.00;48.70
43651;DHT22;29247;50.944;5.382;2023-02-26T14:49:27;5.90;48.70
43651;DHT22;29247;50.944;5.382;2023-02-26T15:18:49;6.00;48.00
43651;DHT22;29247;50.944;5.382;2023-02-26T15:21:34;6.00;47.40
43651;DHT22;29247;50.944;5.382;2023-02-26T15:24:04;6.10;47.60
43651;DHT22;29247;50.944;5.382;2023-02-26T15:26:33;6.10;47.60
43651;DHT22;29247;50.944;5.382;2023-02-26T15:29:03;6.10;47.70
43651;DHT22;29247;50.944;5.382;2023-02-26T15:31:46;6.10;47.90
43651;DHT22;29247;50.944;5.382;2023-02-26T15:34:15;6.00;47.90
43651;DHT22;29247;50.944;5.382;2023-02-26T15:36:45;6.00;48.10
43651;DHT22;29247;50.944;5.382;2023-02-26T15:39:15;6.10;48.50
43651;DHT22;29247;50.944;5.382;2023-02-26T15:41:43;6.10;48.90
43651;DHT22;29247;50.944;5.382;2023-02-26T15:44:17;6.10;49.10
43651;DHT22;29247;50.944;5.382;2023-02-26T15:46:47;6.00;48.70
43651;DHT22;29247;50.944;5.382;2023-02-26T15:49:32;6.00;48.60
43651;DHT22;29247;50.944;5.382;2023-02-26T15:52:00;5.90;48.00
43651;DHT22;29247;50.944;5.382;2023-02-26T15:54:33;5.90;48.10
43651;DHT22;29247;50.944;5.382;2023-02-26T15:57:01;5.90;48.10
43651;DHT22;29247;50.944;5.382;2023-02-26T15:59:30;5.80;47.90
43651;DHT22;29247;50.944;5.382;2023-02-26T16:01:56;5.80;48.10
43651;DHT22;29247;50.944;5.382;2023-02-26T16:04:26;5.90;48.20
43651;DHT22;29247;50.944;5.382;2023-02-26T16:06:56;5.90;48.20
43651;DHT22;29247;50.944;5.382;2023-02-26T16:09:37;5.90;48.30
43651;DHT22;29247;50.944;5.382;2023-02-26T16:12:13;5.80;48.00
43651;DHT22;29247;50.944;5.382;2023-02-26T16:14:44;5.80;48.20
43651;DHT22;29247;50.944;5.382;2023-02-26T16:17:14;5.80;48.30
43651;DHT22;29247;50.944;5.382;2023-02-26T16:19:47;5.80;48.40
43651;DHT22;29247;50.944;5.382;2023-02-26T16:22:32;5.80;48.40
43651;DHT22;29247;50.944;5.382;2023-02-26T16:25:05;5.80;48.40
43651;DHT22;29247;50.944;5.382;2023-02-26T16:27:32;5.80;48.50
43651;DHT22;29247;50.944;5.382;2023-02-26T16:30:01;5.80;48.70
43651;DHT22;29247;50.944;5.382;2023-02-26T16:32:28;5.80;48.80
43651;DHT22;29247;50.944;5.382;2023-02-26T16:34:59;5.80;49.00
43651;DHT22;29247;50.944;5.382;2023-02-26T16:37:30;5.80;49.10
43651;DHT22;29247;50.944;5.382;2023-02-26T16:40:15;5.80;49.10
43651;DHT22;29247;50.944;5.382;2023-02-26T16:45:56;5.80;49.20
43651;DHT22;29247;50.944;5.382;2023-02-26T16:48:27;5.80;49.20
43651;DHT22;29247;50.944;5.382;2023-02-26T16:54:14;5.70;49.60
43651;DHT22;29247;50.944;5.382;2023-02-26T16:56:31;5.60;49.70
43651;DHT22;29247;50.944;5.382;2023-02-26T17:01:45;5.60;50.10
43651;DHT22;29247;50.944;5.382;2023-02-26T17:04:23;5.50;50.00
43651;DHT22;29247;50.944;5.382;2023-02-26T17:06:51;5.50;50.30
43651;DHT22;29247;50.944;5.382;2023-02-26T17:09:40;5.50;50.30
43651;DHT22;29247;50.944;5.382;2023-02-26T17:12:13;5.50;50.40
43651;DHT22;29247;50.944;5.382;2023-02-26T17:14:44;5.50;50.40
43651;DHT22;29247;50.944;5.382;2023-02-26T17:17:11;5.40;50.60
43651;DHT22;29247;50.944;5.382;2023-02-26T17:19:37;5.50;50.80
43651;DHT22;29247;50.944;5.382;2023-02-26T17:22:03;5.40;50.90
43651;DHT22;29247;50.944;5.382;2023-02-26T17:24:37;5.40;51.10
43651;DHT22;29247;50.944;5.382;2023-02-26T17:27:16;5.40;51.30
43651;DHT22;29247;50.944;5.382;2023-02-26T17:29:48;5.40;51.40
43651;DHT22;29247;50.944;5.382;2023-02-26T17:32:24;5.30;51.50
43651;DHT22;29247;50.944;5.382;2023-02-26T17:34:53;5.30;51.60
43651;DHT22;29247;50.944;5.382;2023-02-26T17:37:19;5.30;51.70
43651;DHT22;29247;50.944;5.382;2023-02-26T17:39:48;5.30;51.70
43651;DHT22;29247;50.944;5.382;2023-02-26T17:42:17;5.20;51.70
43651;DHT22;29247;50.944;5.382;2023-02-26T17:44:50;5.20;51.90
43651;DHT22;29247;50.944;5.382;2023-02-26T17:47:24;5.20;52.00
43651;DHT22;29247;50.944;5.382;2023-02-26T17:49:51;5.10;52.20
43651;DHT22;29247;50.944;5.382;2023-02-26T17:52:19;5.10;52.40
43651;DHT22;29247;50.944;5.382;2023-02-26T17:54:47;5.00;53.30
43651;DHT22;29247;50.944;5.382;2023-02-26T17:57:27;5.00;52.90
43651;DHT22;29247;50.944;5.382;2023-02-26T17:59:53;4.90;53.20
43651;DHT22;29247;50.944;5.382;2023-02-26T18:02:24;4.90;53.40
43651;DHT22;29247;50.944;5.382;2023-02-26T18:04:51;4.90;53.70
43651;DHT22;29247;50.944;5.382;2023-02-26T18:07:20;4.80;54.00
43651;DHT22;29247;50.944;5.382;2023-02-26T18:09:47;4.80;54.30
43651;DHT22;29247;50.944;5.382;2023-02-26T18:12:15;4.80;54.60
43651;DHT22;29247;50.944;5.382;2023-02-26T18:14:42;4.70;54.90
43651;DHT22;29247;50.944;5.382;2023-02-26T18:17:28;4.70;55.10
43651;DHT22;29247;50.944;5.382;2023-02-26T18:19:56;4.70;55.30
43651;DHT22;29247;50.944;5.382;2023-02-26T18:22:24;4.60;55.40
43651;DHT22;29247;50.944;5.382;2023-02-26T18:24:53;4.60;55.70
43651;DHT22;29247;50.944;5.382;2023-02-26T18:27:23;4.60;55.90
43651;DHT22;29247;50.944;5.382;2023-02-26T18:29:50;4.50;56.10
43651;DHT22;29247;50.944;5.382;2023-02-26T18:32:21;4.50;56.40
43651;DHT22;29247;50.944;5.382;2023-02-26T18:34:48;4.50;56.70
43651;DHT22;29247;50.944;5.382;2023-02-26T18:37:17;4.40;56.80
43651;DHT22;29247;50.944;5.382;2023-02-26T18:39:44;4.40;57.00
43651;DHT22;29247;50.944;5.382;2023-02-26T18:42:21;4.30;57.20
43651;DHT22;29247;50.944;5.382;2023-02-26T18:44:48;4.20;57.50
43651;DHT22;29247;50.944;5.382;2023-02-26T18:47:17;4.20;57.60
43651;DHT22;29247;50.944;5.382;2023-02-26T18:49:43;4.20;57.90
43651;DHT22;29247;50.944;5.382;2023-02-26T18:52:09;4.20;58.00
43651;DHT22;29247;50.944;5.382;2023-02-26T18:54:38;4.10;58.80
43651;DHT22;29247;50.944;5.382;2023-02-26T18:57:04;4.10;58.40
43651;DHT22;29247;50.944;5.382;2023-02-26T18:59:33;4.00;58.70
43651;DHT22;29247;50.944;5.382;2023-02-26T19:02:04;4.00;58.90
43651;DHT22;29247;50.944;5.382;2023-02-26T19:04:32;3.90;59.00
43651;DHT22;29247;50.944;5.382;2023-02-26T19:06:58;3.90;59.00
43651;DHT22;29247;50.944;5.382;2023-02-26T19:09:24;3.90;59.20
43651;DHT22;29247;50.944;5.382;2023-02-26T19:11:51;3.80;59.40
43651;DHT22;29247;50.944;5.382;2023-02-26T19:14:21;3.80;59.40
43651;DHT22;29247;50.944;5.382;2023-02-26T19:16:48;3.70;59.60
43651;DHT22;29247;50.944;5.382;2023-02-26T19:19:14;3.70;60.00
43651;DHT22;29247;50.944;5.382;2023-02-26T19:21:42;3.70;60.30